TimeHST,TemperatureF,Dew PointF,Humidity,Sea Level PressureIn,VisibilityMPH,Wind Direction,Wind SpeedMPH,Gust SpeedMPH,PrecipitationIn,Events,Conditions,WindDirDegrees,DateUTC
12:53 AM,75.0,64.9,71,30.02,10.0,Calm,Calm,-,N/A,,Unknown,0,2013-07-02 10:53:00
1:53 AM,75.0,64.0,69,30.01,10.0,Calm,Calm,-,N/A,,Unknown,0,2013-07-02 11:53:00
2:53 AM,75.0,64.0,69,30.00,10.0,Calm,Calm,-,N/A,,Unknown,0,2013-07-02 12:53:00
4:53 AM,73.9,64.0,71,30.01,10.0,Variable,4.6,-,N/A,,Overcast,0,2013-07-02 14:53:00
5:53 AM,73.0,64.9,76,30.02,10.0,Calm,Calm,-,N/A,,Mostly Cloudy,0,2013-07-02 15:53:00
6:53 AM,75.0,64.9,71,30.03,10.0,Variable,3.5,-,N/A,,Partly Cloudy,0,2013-07-02 16:53:00
7:53 AM,75.9,68.0,76,30.05,10.0,NNE,5.8,-,0.00,,Unknown,30,2013-07-02 17:53:00
8:53 AM,80.1,66.9,64,30.05,10.0,Variable,4.6,-,N/A,,Unknown,0,2013-07-02 18:53:00
9:53 AM,78.1,66.9,68,30.04,10.0,SE,6.9,-,N/A,,Mostly Cloudy,130,2013-07-02 19:53:00
10:53 AM,82.9,64.9,54,30.04,10.0,Variable,5.8,-,N/A,,Mostly Cloudy,0,2013-07-02 20:53:00
11:53 AM,80.1,66.0,62,30.03,10.0,East,6.9,-,N/A,,Overcast,100,2013-07-02 21:53:00
12:53 PM,82.0,64.9,56,30.01,10.0,ENE,8.1,-,N/A,,Overcast,60,2013-07-02 22:53:00
1:53 PM,81.0,64.9,58,30.00,10.0,East,10.4,16.1,N/A,,Overcast,80,2013-07-02 23:53:00
2:53 PM,81.0,64.9,58,29.99,10.0,Variable,6.9,-,N/A,,Overcast,0,2013-07-03 00:53:00
3:53 PM,80.1,66.0,62,29.98,10.0,Variable,5.8,-,0.00,,Overcast,0,2013-07-03 01:53:00
4:53 PM,82.0,64.9,56,29.96,10.0,East,13.8,20.7,N/A,,Scattered Clouds,80,2013-07-03 02:53:00
5:53 PM,78.1,63.0,60,29.96,10.0,Variable,5.8,-,0.00,,Scattered Clouds,0,2013-07-03 03:53:00
6:53 PM,77.0,63.0,62,29.98,10.0,Variable,4.6,-,N/A,,Clear,0,2013-07-03 04:53:00
7:53 PM,75.0,64.0,69,29.99,10.0,NE,3.5,-,N/A,,Clear,50,2013-07-03 05:53:00
8:53 PM,75.0,64.0,69,30.00,10.0,Variable,3.5,-,N/A,,Clear,0,2013-07-03 06:53:00
9:53 PM,73.9,64.0,71,30.01,10.0,Variable,3.5,-,N/A,,Clear,0,2013-07-03 07:53:00
10:53 PM,73.0,64.0,73,30.01,10.0,Calm,Calm,-,N/A,,Clear,0,2013-07-03 08:53:00
11:53 PM,72.0,64.0,76,30.01,10.0,Variable,3.5,-,N/A,,Clear,0,2013-07-03 09:53:00